createdAt,value
2023-04-02T00:01:37.221Z,1.00
2023-04-02T00:04:05.616Z,0.93
2023-04-02T00:06:40.285Z,1.02
2023-04-02T00:09:12.735Z,0.99
2023-04-02T00:11:41.705Z,0.90
2023-04-02T00:14:21.610Z,0.93
2023-04-02T00:16:48.228Z,1.00
2023-04-02T00:19:29.721Z,0.94
2023-04-02T00:21:57.279Z,0.92
2023-04-02T00:24:23.598Z,0.93
2023-04-02T00:26:51.036Z,0.91
2023-04-02T00:29:18.536Z,0.93
2023-04-02T00:31:46.693Z,0.98
2023-04-02T00:34:17.322Z,1.04
2023-04-02T00:36:44.131Z,1.14
2023-04-02T00:39:15.689Z,1.21
2023-04-02T00:41:46.743Z,1.23
2023-04-02T00:44:14.552Z,1.22
2023-04-02T00:46:46.859Z,1.19
2023-04-02T00:49:19.520Z,1.14
2023-04-02T00:51:51.551Z,1.07
2023-04-02T00:54:20.542Z,1.08
2023-04-02T00:56:48.332Z,1.05
2023-04-02T00:59:35.705Z,1.03
2023-04-02T01:02:14.782Z,0.97
2023-04-02T01:04:41.685Z,0.89
2023-04-02T01:07:10.540Z,0.89
2023-04-02T01:09:46.931Z,0.85
2023-04-02T01:12:26.696Z,0.76
2023-04-02T01:14:59.189Z,0.72
2023-04-02T01:17:48.799Z,0.76
2023-04-02T01:20:35.285Z,0.71
2023-04-02T01:23:11.402Z,0.69
2023-04-02T01:25:40.825Z,0.62
2023-04-02T01:28:13.084Z,0.56
2023-04-02T01:30:39.974Z,0.66
2023-04-02T01:33:07.080Z,0.71
2023-04-02T01:35:36.519Z,0.75
2023-04-02T01:38:12.093Z,0.78
2023-04-02T01:40:39.890Z,0.85
2023-04-02T01:43:09.217Z,0.93
2023-04-02T01:45:36.081Z,1.04
2023-04-02T01:48:06.120Z,1.16
2023-04-02T01:50:37.182Z,1.16
2023-04-02T01:53:05.151Z,1.25
2023-04-02T01:55:43.829Z,1.27
2023-04-02T01:58:11.507Z,1.27
2023-04-02T02:00:41.971Z,1.22
2023-04-02T02:03:10.236Z,1.31
2023-04-02T02:05:37.340Z,1.28
2023-04-02T02:08:04.424Z,1.29
2023-04-02T02:10:35.583Z,1.32
2023-04-02T02:13:02.237Z,1.31
2023-04-02T02:15:31.682Z,1.40
2023-04-02T02:17:59.345Z,1.42
2023-04-02T02:20:27.476Z,1.40
2023-04-02T02:22:54.698Z,1.52
2023-04-02T02:25:22.753Z,1.56
2023-04-02T02:28:01.138Z,1.55
2023-04-02T02:30:46.366Z,1.52
2023-04-02T02:33:18.787Z,1.55
2023-04-02T02:35:49.984Z,1.58
2023-04-02T02:38:27.896Z,1.54
2023-04-02T02:40:57.037Z,1.58
2023-04-02T02:43:24.250Z,1.58
2023-04-02T02:45:51.650Z,1.50
2023-04-02T02:48:19.936Z,1.47
2023-04-02T02:50:46.289Z,1.45
2023-04-02T02:53:23.517Z,1.43
2023-04-02T02:55:52.883Z,1.47
2023-04-02T02:58:23.018Z,1.42
2023-04-02T03:00:49.818Z,1.40
2023-04-02T03:03:21.955Z,1.32
2023-04-02T03:06:02.991Z,1.23
2023-04-02T03:08:37.019Z,1.21
2023-04-02T03:11:09.310Z,1.18
2023-04-02T03:13:38.890Z,1.11
2023-04-02T03:16:20.692Z,1.07
2023-04-02T03:18:47.015Z,1.08
2023-04-02T03:21:21.644Z,1.07
2023-04-02T03:23:53.526Z,0.97
2023-04-02T03:26:44.693Z,0.99
2023-04-02T03:29:26.361Z,1.05
2023-04-02T03:31:58.916Z,1.12
2023-04-02T03:34:28.739Z,1.24
2023-04-02T03:37:01.264Z,1.32
2023-04-02T03:39:36.648Z,1.27
2023-04-02T03:42:07.368Z,1.19
2023-04-02T03:44:37.163Z,1.10
2023-04-02T03:47:16.149Z,1.07
2023-04-02T03:50:01.214Z,1.05
2023-04-02T03:52:28.878Z,1.02
2023-04-02T03:54:56.992Z,0.98
2023-04-02T03:57:33.835Z,0.97
2023-04-02T04:00:04.981Z,1.00
2023-04-02T04:02:42.228Z,1.08
2023-04-02T04:05:19.825Z,1.12
2023-04-02T04:07:46.397Z,1.05
2023-04-02T04:10:18.483Z,1.02
2023-04-02T04:12:47.083Z,1.08
2023-04-02T04:15:22.420Z,1.14
2023-04-02T04:18:02.280Z,0.99
2023-04-02T04:20:40.244Z,0.99
2023-04-02T04:23:35.856Z,0.98
2023-04-02T04:26:19.891Z,0.99
2023-04-02T04:28:46.192Z,0.97
2023-04-02T04:31:25.325Z,0.90
2023-04-02T04:34:02.973Z,0.94
2023-04-02T04:36:32.682Z,0.91
2023-04-02T04:39:00.503Z,0.86
2023-04-02T04:41:29.537Z,0.80
2023-04-02T04:43:59.823Z,0.73
2023-04-02T04:46:32.658Z,0.68
2023-04-02T04:49:14.533Z,0.68
2023-04-02T04:51:58.364Z,0.60
2023-04-02T04:54:28.886Z,0.57
2023-04-02T04:56:57.378Z,0.56
2023-04-02T04:59:27.414Z,0.60
2023-04-02T05:01:59.552Z,0.58
2023-04-02T05:04:36.824Z,0.60
2023-04-02T05:07:07.366Z,0.58
2023-04-02T05:09:45.917Z,0.57
2023-04-02T05:12:26.945Z,0.53
2023-04-02T05:15:02.347Z,0.49
2023-04-02T05:17:36.052Z,0.55
2023-04-02T05:20:09.720Z,0.52
2023-04-02T05:22:41.327Z,0.56
2023-04-02T05:25:27.448Z,0.68
2023-04-02T05:27:58.029Z,0.58
2023-04-02T05:30:24.305Z,0.56
2023-04-02T05:32:54.442Z,0.55
2023-04-02T05:35:22.107Z,0.52
2023-04-02T05:37:48.679Z,0.59
2023-04-02T05:40:23.241Z,0.62
2023-04-02T05:42:52.734Z,0.67
2023-04-02T05:45:35.024Z,0.74
2023-04-02T05:48:04.450Z,0.79
2023-04-02T05:50:37.083Z,0.87
2023-04-02T05:53:22.118Z,0.89
2023-04-02T05:56:07.331Z,0.90
2023-04-02T05:58:37.353Z,1.00
2023-04-02T06:01:12.877Z,1.08
2023-04-02T06:03:49.457Z,1.11
2023-04-02T06:06:19.071Z,1.14
2023-04-02T06:08:57.771Z,1.22
2023-04-02T06:11:30.659Z,1.35
2023-04-02T06:13:57.954Z,1.48
2023-04-02T06:16:26.503Z,1.64
2023-04-02T06:18:52.978Z,1.67
2023-04-02T06:21:20.723Z,1.77
2023-04-02T06:23:50.358Z,1.91
2023-04-02T06:26:24.151Z,1.97
2023-04-02T06:29:06.978Z,2.03
2023-04-02T06:31:39.489Z,2.10
2023-04-02T06:34:07.703Z,2.19
2023-04-02T06:36:34.092Z,2.16
2023-04-02T06:39:04.894Z,2.37
2023-04-02T06:41:31.264Z,2.30
2023-04-02T06:44:03.390Z,2.43
2023-04-02T06:46:38.042Z,2.38
2023-04-02T06:49:34.295Z,2.46
2023-04-02T06:52:01.684Z,2.54
2023-04-02T06:54:27.982Z,2.65
2023-04-02T06:56:56.328Z,2.63
2023-04-02T06:59:23.222Z,2.66
2023-04-02T07:01:49.586Z,2.84
2023-04-02T07:04:16.443Z,2.80
2023-04-02T07:06:42.912Z,2.76
2023-04-02T07:09:09.310Z,2.85
2023-04-02T07:11:35.710Z,2.87
2023-04-02T07:14:02.060Z,2.93
2023-04-02T07:16:30.186Z,3.02
2023-04-02T07:18:58.712Z,3.15
2023-04-02T07:21:28.150Z,3.10
2023-04-02T07:23:54.793Z,3.29
2023-04-02T07:26:27.894Z,3.27
2023-04-02T07:28:55.661Z,3.23
2023-04-02T07:31:24.455Z,3.21
2023-04-02T07:33:51.456Z,3.31
2023-04-02T07:36:19.770Z,3.33
2023-04-02T07:38:46.315Z,3.54
2023-04-02T07:41:13.113Z,3.45
2023-04-02T07:43:40.005Z,3.48
2023-04-02T07:46:06.866Z,3.36
2023-04-02T07:48:33.301Z,3.31
2023-04-02T07:51:00.519Z,3.38
2023-04-02T07:53:29.908Z,3.34
2023-04-02T07:55:57.471Z,3.57
2023-04-02T07:58:23.993Z,3.70
2023-04-02T08:00:50.336Z,3.62
2023-04-02T08:03:17.240Z,3.57
2023-04-02T08:05:43.672Z,3.66
2023-04-02T08:08:09.997Z,3.80
2023-04-02T08:10:36.329Z,3.85
2023-04-02T08:13:02.639Z,3.99
2023-04-02T08:15:28.998Z,4.06
2023-04-02T08:17:55.783Z,4.09
2023-04-02T08:20:22.400Z,4.14
2023-04-02T08:22:49.528Z,4.00
2023-04-02T08:25:15.985Z,4.09
2023-04-02T08:27:42.866Z,4.16
2023-04-02T08:30:09.638Z,4.07
2023-04-02T08:32:36.338Z,4.25
2023-04-02T08:35:03.063Z,4.22
2023-04-02T08:37:29.417Z,4.34
2023-04-02T08:39:55.763Z,4.38
2023-04-02T08:42:26.598Z,4.38
2023-04-02T08:45:24.374Z,4.44
2023-04-02T08:47:55.234Z,4.52
2023-04-02T08:50:24.561Z,4.62
2023-04-02T08:52:51.718Z,4.60
2023-04-02T08:55:30.553Z,4.37
2023-04-02T08:58:15.478Z,4.28
2023-04-02T09:00:44.090Z,4.31
2023-04-02T09:03:15.904Z,4.46
2023-04-02T09:05:42.996Z,4.56
2023-04-02T09:08:16.184Z,4.57
2023-04-02T09:10:47.458Z,4.47
2023-04-02T09:13:17.991Z,4.54
2023-04-02T09:15:44.645Z,4.70
2023-04-02T09:18:18.401Z,4.66
2023-04-02T09:20:45.014Z,4.76
2023-04-02T09:23:16.865Z,4.79
2023-04-02T09:25:51.204Z,4.79
2023-04-02T09:28:27.840Z,4.75
2023-04-02T09:30:59.622Z,4.93
2023-04-02T09:33:42.105Z,5.03
2023-04-02T09:36:17.364Z,4.87
2023-04-02T09:38:57.019Z,4.72
2023-04-02T09:41:27.161Z,4.58
2023-04-02T09:44:11.544Z,4.65
2023-04-02T09:46:37.845Z,4.92
2023-04-02T09:49:04.244Z,4.99
2023-04-02T09:51:34.106Z,4.98
2023-04-02T09:54:03.249Z,4.98
2023-04-02T09:56:30.570Z,4.86
2023-04-02T09:59:06.056Z,5.15
2023-04-02T10:01:37.339Z,5.06
2023-04-02T10:04:04.770Z,5.00
2023-04-02T10:06:32.722Z,5.19
2023-04-02T10:09:18.305Z,5.19
2023-04-02T10:11:46.564Z,5.13
2023-04-02T10:14:18.487Z,5.11
2023-04-02T10:16:49.705Z,5.25
2023-04-02T10:19:25.190Z,5.12
2023-04-02T10:21:52.335Z,5.19
2023-04-02T10:24:18.766Z,5.17
2023-04-02T10:26:45.065Z,5.16
2023-04-02T10:29:11.380Z,5.04
2023-04-02T10:31:43.110Z,5.16
2023-04-02T10:34:17.400Z,5.26
2023-04-02T10:37:04.149Z,5.22
2023-04-02T10:39:44.769Z,5.09
2023-04-02T10:42:31.403Z,5.29
2023-04-02T10:45:04.859Z,5.40
2023-04-02T10:47:34.143Z,5.57
2023-04-02T10:50:19.388Z,5.76
2023-04-02T10:52:57.912Z,5.71
2023-04-02T10:55:28.894Z,5.74
2023-04-02T10:57:57.212Z,5.97
2023-04-02T11:00:33.809Z,6.06
2023-04-02T11:03:09.457Z,6.22
2023-04-02T11:05:43.897Z,6.34
2023-04-02T11:08:17.119Z,7.51
2023-04-02T11:10:56.706Z,8.89
2023-04-02T11:13:28.428Z,9.63
2023-04-02T11:15:54.956Z,10.37
2023-04-02T11:18:27.060Z,10.35
2023-04-02T11:20:58.251Z,10.99
2023-04-02T11:23:27.826Z,11.11
2023-04-02T11:26:14.083Z,10.99
2023-04-02T11:28:41.204Z,11.74
2023-04-02T11:31:07.588Z,11.88
2023-04-02T11:33:44.587Z,12.27
2023-04-02T11:36:30.857Z,13.03
2023-04-02T11:39:01.881Z,12.33
2023-04-02T11:42:03.481Z,12.89
2023-04-02T11:44:29.922Z,12.95
2023-04-02T11:47:16.600Z,12.29
2023-04-02T11:50:01.706Z,12.79
2023-04-02T11:52:34.132Z,13.05
2023-04-02T11:55:19.323Z,12.46
2023-04-02T11:58:04.418Z,12.72
2023-04-02T12:00:34.397Z,12.33
2023-04-02T12:03:03.434Z,12.99
2023-04-02T12:05:37.770Z,13.39
2023-04-02T12:08:22.682Z,13.42
2023-04-02T12:10:52.395Z,12.93
2023-04-02T12:13:20.042Z,13.13
2023-04-02T12:15:47.192Z,13.31
2023-04-02T12:18:21.495Z,12.43
2023-04-02T12:20:49.556Z,12.47
2023-04-02T12:23:18.748Z,10.86
2023-04-02T12:25:51.930Z,11.25
2023-04-02T12:28:18.617Z,12.11
2023-04-02T12:30:45.956Z,11.85
2023-04-02T12:33:15.111Z,12.58
2023-04-02T12:35:42.533Z,13.47
2023-04-02T12:38:36.666Z,12.90
2023-04-02T12:41:05.008Z,12.98
2023-04-02T12:43:32.393Z,13.09
2023-04-02T12:46:06.765Z,13.72
2023-04-02T12:48:34.642Z,12.86
2023-04-02T12:51:02.062Z,11.84
2023-04-02T12:53:28.330Z,12.49
2023-04-02T12:55:55.123Z,13.35
2023-04-02T12:58:26.614Z,13.60
2023-04-02T13:00:53.104Z,14.15
2023-04-02T13:03:20.759Z,14.09
2023-04-02T13:05:47.181Z,13.30
2023-04-02T13:08:18.525Z,14.12
2023-04-02T13:10:45.037Z,14.48
2023-04-02T13:13:16.461Z,14.42
2023-04-02T13:15:43.637Z,13.86
2023-04-02T13:18:13.031Z,14.14
2023-04-02T13:20:43.209Z,13.38
2023-04-02T13:23:28.103Z,13.95
2023-04-02T13:25:54.786Z,13.51
2023-04-02T13:28:21.719Z,13.23
2023-04-02T13:30:48.181Z,12.14
2023-04-02T13:33:14.837Z,12.38
2023-04-02T13:35:41.638Z,12.04
2023-04-02T13:38:08.602Z,12.37
2023-04-02T13:40:37.333Z,12.80
2023-04-02T13:43:05.088Z,11.78
2023-04-02T13:45:33.810Z,10.60
2023-04-02T13:48:01.882Z,10.45
2023-04-02T13:50:29.883Z,11.50
2023-04-02T13:53:00.308Z,12.07
2023-04-02T13:55:29.272Z,11.94
2023-04-02T13:57:56.562Z,10.90
2023-04-02T14:00:23.302Z,10.34
2023-04-02T14:03:12.988Z,9.39
2023-04-02T14:05:51.974Z,8.66
2023-04-02T14:08:30.671Z,9.72
2023-04-02T14:11:15.386Z,10.51
2023-04-02T14:13:47.884Z,10.03
2023-04-02T14:16:14.194Z,8.66
2023-04-02T14:18:43.536Z,8.36
2023-04-02T14:21:16.076Z,10.15
2023-04-02T14:23:51.239Z,10.63
2023-04-02T14:26:21.341Z,10.59
2023-04-02T14:28:50.597Z,11.37
2023-04-02T14:31:32.536Z,11.15
2023-04-02T14:33:58.934Z,10.52
2023-04-02T14:36:31.091Z,9.19
2023-04-02T14:39:16.323Z,10.39
2023-04-02T14:41:46.009Z,11.31
2023-04-02T14:44:12.730Z,10.11
2023-04-02T14:46:39.494Z,9.59
2023-04-02T14:49:08.958Z,10.03
2023-04-02T14:51:47.460Z,9.68
2023-04-02T14:54:33.127Z,10.24
2023-04-02T14:56:59.461Z,10.16
2023-04-02T14:59:25.777Z,10.43
2023-04-02T15:01:56.235Z,10.22
2023-04-02T15:04:34.776Z,8.98
2023-04-02T15:07:22.068Z,7.86
2023-04-02T15:09:54.838Z,7.40
2023-04-02T15:12:30.976Z,7.05
2023-04-02T15:15:07.870Z,6.74
2023-04-02T15:17:34.298Z,6.47
2023-04-02T15:20:14.821Z,6.23
2023-04-02T15:22:59.921Z,5.83
2023-04-02T15:25:36.492Z,5.75
2023-04-02T15:28:06.030Z,5.49
2023-04-02T15:30:33.099Z,5.23
2023-04-02T15:33:19.517Z,5.24
2023-04-02T15:36:09.245Z,5.25
2023-04-02T15:38:43.911Z,5.31
2023-04-02T15:41:27.501Z,5.33
2023-04-02T15:44:13.074Z,5.37
2023-04-02T15:46:42.391Z,5.37
2023-04-02T15:49:27.545Z,5.35
2023-04-02T15:52:12.744Z,5.37
2023-04-02T15:54:59.874Z,4.96
2023-04-02T15:57:44.903Z,4.93
2023-04-02T16:00:11.455Z,4.68
2023-04-02T16:02:37.761Z,4.60
2023-04-02T16:05:04.772Z,4.63
2023-04-02T16:07:54.456Z,4.54
2023-04-02T16:10:42.357Z,4.52
2023-04-02T16:13:38.539Z,4.49
2023-04-02T16:16:06.296Z,4.48
2023-04-02T16:18:53.452Z,4.49
2023-04-02T16:21:21.853Z,4.42
2023-04-02T16:23:48.391Z,4.41
2023-04-02T16:26:27.100Z,4.41
2023-04-02T16:28:59.759Z,4.37
2023-04-02T16:31:31.768Z,4.32
2023-04-02T16:34:07.846Z,4.28
2023-04-02T16:36:38.058Z,4.22
2023-04-02T16:39:13.877Z,4.26
2023-04-02T16:41:58.226Z,4.16
2023-04-02T16:44:45.947Z,4.12
2023-04-02T16:47:18.119Z,4.02
2023-04-02T16:52:47.934Z,3.92
2023-04-02T16:55:19.637Z,3.89
2023-04-02T16:58:04.519Z,3.75
2023-04-02T17:00:40.443Z,3.64
2023-04-02T17:03:16.383Z,3.60
2023-04-02T17:05:52.929Z,3.55
2023-04-02T17:08:24.032Z,3.43
2023-04-02T17:10:54.047Z,3.42
2023-04-02T17:13:26.147Z,3.34
2023-04-02T17:16:02.419Z,3.29
2023-04-02T17:18:28.771Z,3.28
2023-04-02T17:20:57.610Z,3.21
2023-04-02T17:23:24.702Z,3.14
2023-04-02T17:25:57.132Z,3.07
2023-04-02T17:28:36.570Z,2.99
2023-04-02T17:31:12.746Z,2.94
2023-04-02T17:33:39.152Z,2.85
2023-04-02T17:36:08.532Z,2.83
2023-04-02T17:38:39.702Z,2.74
2023-04-02T17:41:06.221Z,2.70
2023-04-02T17:43:44.576Z,2.62
2023-04-02T17:46:21.140Z,2.62
2023-04-02T17:48:48.672Z,2.54
2023-04-02T17:51:29.989Z,2.41
2023-04-02T17:54:15.393Z,2.40
2023-04-02T17:56:52.934Z,2.27
2023-04-02T17:59:31.308Z,2.22
2023-04-02T18:01:57.600Z,2.17
2023-04-02T18:04:33.214Z,2.09
2023-04-02T18:06:59.510Z,1.98
2023-04-02T18:09:44.516Z,1.93
2023-04-02T18:12:26.135Z,1.89
2023-04-02T18:14:55.825Z,1.78
2023-04-02T18:17:27.913Z,1.76
2023-04-02T18:19:58.725Z,1.69
2023-04-02T18:22:31.237Z,1.64
2023-04-02T18:25:16.350Z,1.57
2023-04-02T18:27:54.638Z,1.51
2023-04-02T18:30:31.571Z,1.46
2023-04-02T18:32:57.911Z,1.48
2023-04-02T18:35:32.551Z,1.46
2023-04-02T18:38:17.669Z,1.45
2023-04-02T18:40:50.129Z,1.41
2023-04-02T18:43:28.727Z,1.38
2023-04-02T18:46:05.222Z,1.33
2023-04-02T18:48:37.891Z,1.26
2023-04-02T18:51:06.470Z,1.21
2023-04-02T18:53:33.448Z,1.13
2023-04-02T18:56:04.462Z,1.09
2023-04-02T18:58:49.516Z,0.99
2023-04-02T19:01:31.704Z,0.99
2023-04-02T19:04:02.660Z,0.94
2023-04-02T19:06:35.113Z,0.85
2023-04-02T19:09:03.719Z,0.75
2023-04-02T19:11:31.186Z,0.71
2023-04-02T19:14:01.423Z,0.69
2023-04-02T19:16:42.677Z,0.64
2023-04-02T19:19:15.878Z,0.62
2023-04-02T19:21:51.478Z,0.58
2023-04-02T19:24:32.864Z,0.52
2023-04-02T19:27:17.923Z,0.46
2023-04-02T19:30:03.124Z,0.40
2023-04-02T19:32:29.433Z,0.34
2023-04-02T19:35:07.059Z,0.30
2023-04-02T19:37:44.003Z,0.25
2023-04-02T19:40:17.860Z,0.14
2023-04-02T19:42:44.201Z,0.07
2023-04-02T19:45:20.303Z,-0.02
2023-04-02T19:47:46.667Z,-0.11
2023-04-02T19:50:13.087Z,-0.14
2023-04-02T19:52:39.405Z,-0.21
2023-04-02T19:55:05.920Z,-0.26
2023-04-02T19:57:32.576Z,-0.37
2023-04-02T19:59:58.893Z,-0.38
2023-04-02T20:02:25.349Z,-0.40
2023-04-02T20:04:51.705Z,-0.38
2023-04-02T20:07:18.008Z,-0.45
2023-04-02T20:09:44.348Z,-0.51
2023-04-02T20:12:10.919Z,-0.55
2023-04-02T20:14:37.250Z,-0.62
2023-04-02T20:17:03.627Z,-0.72
2023-04-02T20:19:30.083Z,-0.79
2023-04-02T20:21:56.455Z,-0.78
2023-04-02T20:24:22.800Z,-0.87
2023-04-02T20:26:49.114Z,-0.89
2023-04-02T20:29:15.616Z,-0.93
2023-04-02T20:31:41.957Z,-0.97
2023-04-02T20:34:09.390Z,-0.98
2023-04-02T20:36:35.924Z,-1.06
2023-04-02T20:39:02.397Z,-1.11
2023-04-02T20:41:28.760Z,-1.15
2023-04-02T20:43:55.109Z,-1.16
2023-04-02T20:46:22.451Z,-1.18
2023-04-02T20:48:48.800Z,-1.19
2023-04-02T20:51:15.633Z,-1.23
2023-04-02T20:53:42.144Z,-1.26
2023-04-02T20:56:10.122Z,-1.30
2023-04-02T20:58:37.348Z,-1.35
2023-04-02T21:01:16.453Z,-1.37
2023-04-02T21:03:42.945Z,-1.42
2023-04-02T21:06:28.502Z,-1.44
2023-04-02T21:08:54.797Z,-1.45
2023-04-02T21:11:21.996Z,-1.45
2023-04-02T21:13:49.100Z,-1.46
2023-04-02T21:16:41.868Z,-1.48
2023-04-02T21:19:08.770Z,-1.62
2023-04-02T21:21:36.396Z,-1.74
2023-04-02T21:24:04.298Z,-1.80
2023-04-02T21:26:33.298Z,-1.83
2023-04-02T21:29:00.889Z,-1.87
2023-04-02T21:31:28.671Z,-1.92
2023-04-02T21:33:56.322Z,-2.02
2023-04-02T21:36:33.338Z,-2.08
2023-04-02T21:39:07.376Z,-2.14
2023-04-02T21:41:35.413Z,-2.23
2023-04-02T21:44:03.121Z,-2.29
2023-04-02T21:46:31.123Z,-2.30
2023-04-02T21:48:58.673Z,-2.30
2023-04-02T21:51:28.985Z,-2.30
2023-04-02T21:53:55.669Z,-2.26
2023-04-02T21:56:23.245Z,-2.20
2023-04-02T21:58:50.601Z,-2.19
2023-04-02T22:01:26.738Z,-2.13
2023-04-02T22:03:54.493Z,-2.13
2023-04-02T22:06:22.214Z,-2.17
2023-04-02T22:08:52.582Z,-2.24
2023-04-02T22:11:22.371Z,-2.29
2023-04-02T22:13:50.094Z,-2.30
2023-04-02T22:16:17.697Z,-2.30
2023-04-02T22:18:44.258Z,-2.32
2023-04-02T22:21:11.461Z,-2.33
2023-04-02T22:23:38.090Z,-2.35
2023-04-02T22:26:05.642Z,-2.42
2023-04-02T22:28:32.297Z,-2.49
2023-04-02T22:31:04.133Z,-2.43
2023-04-02T22:33:32.324Z,-2.41
2023-04-02T22:35:59.180Z,-2.44
2023-04-02T22:38:25.756Z,-2.46
2023-04-02T22:40:52.075Z,-2.48
2023-04-02T22:43:18.383Z,-2.50
2023-04-02T22:45:45.557Z,-2.51
2023-04-02T22:48:11.907Z,-2.55
2023-04-02T22:50:38.446Z,-2.54
2023-04-02T22:53:04.947Z,-2.56
2023-04-02T22:55:31.260Z,-2.59
2023-04-02T22:57:57.560Z,-2.59
2023-04-02T23:00:24.163Z,-2.56
2023-04-02T23:02:50.582Z,-2.54
2023-04-02T23:05:17.125Z,-2.56
2023-04-02T23:07:43.435Z,-2.57
2023-04-02T23:10:09.904Z,-2.60
2023-04-02T23:12:36.235Z,-2.65
2023-04-02T23:15:03.613Z,-2.67
2023-04-02T23:17:29.963Z,-2.68
2023-04-02T23:19:56.349Z,-2.70
2023-04-02T23:22:22.666Z,-2.76
2023-04-02T23:24:48.999Z,-2.76
2023-04-02T23:27:16.254Z,-2.81
2023-04-02T23:29:42.567Z,-2.81
2023-04-02T23:32:08.868Z,-2.78
2023-04-02T23:34:35.476Z,-2.77
2023-04-02T23:37:01.786Z,-2.80
2023-04-02T23:39:28.076Z,-2.76
2023-04-02T23:41:54.383Z,-2.76
2023-04-02T23:44:20.740Z,-2.74
2023-04-02T23:46:47.109Z,-2.78
2023-04-02T23:49:13.442Z,-2.76
2023-04-02T23:51:40.650Z,-2.82
2023-04-02T23:54:07.395Z,-2.82
2023-04-02T23:56:33.695Z,-2.83
2023-04-02T23:59:00.001Z,-2.87
